Nearby METAR Reports

 

KMTN - Baltimore/Martin, Maryland, USA
Distance from station: SSE 8mi, 13km
Updated: Tue, 02-Sep-2014 9:45pm EDT
Mostly cloudy
Mostly cloudy
 Wind from calm
Wind: Calm
Temperature: 75°F , 24°C
Dew Point: 73°F , 23°C
Humidity: 94%
Barometer: 29.91 inHg , 1012.9 hPa
Clouds: Mostly cloudy
Visibility: 10 miles , 16 km
Cloud details: Partly cloudy 4000 ft
Mostly cloudy 10000 ft
2014/09/03 01:45 KMTN 030145Z 00000KT 10SM SCT040 BKN100 24/23 A2991 RMK LAST
KDMH - Baltimore/Dwntwn, Maryland, USA
Distance from station: SW 12mi, 19km
Updated: Tue, 02-Sep-2014 9:54pm EDT

 
Temperature: 73°F , 23°C
Dew Point: 72°F , 22°C
Humidity: 94%
Barometer: 29.91 inHg , 1012.9 hPa
2014/09/03 01:54 KDMH 030154Z AUTO 23/22 A2991 RMK AO1 SLP127 T02330217
 
KBWI - Balto/Wash Intl, Maryland, USA
Distance from station: SSW 20mi, 33km
Updated: Tue, 02-Sep-2014 9:54pm EDT
Partly cloudy
Partly cloudy
 Wind from calm
Wind: Calm
Temperature: 73°F , 23°C
Dew Point: 72°F , 22°C
Humidity: 94%
Barometer: 29.90 inHg , 1012.5 hPa
Clouds: Partly cloudy
Visibility: 10 miles , 16 km
Cloud details: Few Clouds 6500 ft
Partly cloudy 12000 ft
Partly cloudy 25000 ft
2014/09/03 01:54 KBWI 030154Z 00000KT 10SM FEW065 SCT120 SCT250 23/22 A2990 RMK AO2 TSE49 SLP122 T02280222
KDMW - Carroll Cnty, Maryland, USA
Distance from station: WNW 30mi, 48km
Updated: Tue, 02-Sep-2014 9:50pm EDT
Clear
Clear
 Wind from S
Wind: S 3 mph , 6 km/h
Temperature: 72°F , 22°C
Dew Point: 70°F , 21°C
Humidity: 94%
Barometer: 29.93 inHg , 1013.5 hPa
Clouds: Clear
Visibility: 10 miles , 16 km
2014/09/03 01:50 KDMW 030150Z AUTO 19003KT 10SM CLR 22/21 A2993 RMK AO2 LTG DSNT SE
 
KNAK - Annapolis/Naval, Maryland, USA
Distance from station: S 30mi, 48km
Updated: Tue, 02-Sep-2014 9:54pm EDT
Clear
Clear
 Wind from calm
Wind: Calm
Temperature: 75°F , 24°C
Dew Point: 72°F , 22°C
Humidity: 89%
Barometer: 29.89 inHg , 1012.2 hPa
Clouds: Clear
Visibility: 10 miles , 16 km
2014/09/03 01:54 KNAK 030154Z AUTO 00000KT 10SM CLR 24/22 A2989 RMK AO2 RAB14E31 SLP124 P0013 T02440222
KW29 - Stevensville, Maryland, USA
Distance from station: SSE 31mi, 50km
Updated: Tue, 02-Sep-2014 9:51pm EDT
Nearby Thunderstorm
Nearby Thunderstorm
 Wind from ESE
Wind: ESE 3 mph , 6 km/h
Temperature: 77°F , 25°C
Dew Point: 73°F , 23°C
Humidity: 89%
Barometer: 29.90 inHg , 1012.5 hPa
Summary: Nearby Thunderstorm
Visibility: 10 miles , 16 km
2014/09/03 01:51 KW29 030151Z AUTO 11003KT 10SM VCTS 25/23 A2990 RMK AO1 LTG DSNT NE AND SE
 
KCGS - College Park, Maryland, USA
Distance from station: SW 38mi, 61km
Updated: Tue, 02-Sep-2014 9:50pm EDT
Clear
Clear
 Wind from calm
Wind: Calm
Temperature: 75°F , 24°C
Dew Point: 75°F , 24°C
Humidity: 100%
Barometer: 29.89 inHg , 1012.2 hPa
Clouds: Clear
Visibility: 10 miles , 16 km
2014/09/03 01:50 KCGS 030150Z AUTO 00000KT 10SM CLR 24/24 A2989 RMK AO1
KGAI - Gaithersburg, Maryland, USA
Distance from station: WSW 40mi, 65km
Updated: Tue, 02-Sep-2014 9:55pm EDT
Clear
Clear
 Wind from calm
Wind: Calm
Temperature: 72°F , 22°C
Dew Point: 70°F , 21°C
Humidity: 94%
Barometer: 29.95 inHg , 1014.2 hPa
Clouds: Clear
Visibility: 1 mile , 2 km
2014/09/03 01:55 KGAI 030155Z AUTO 00000KT 1SM CLR 22/21 A2995 RMK AO1
 
KTHV - York, Pennsylvania, USA
Distance from station: NNW 40mi, 65km
Updated: Tue, 02-Sep-2014 9:53pm EDT
Clear
Clear
 Wind from calm
Wind: Calm
Temperature: 73°F , 23°C
Dew Point: 66°F , 19°C
Humidity: 78%
Barometer: 29.91 inHg , 1012.9 hPa
Clouds: Clear
Visibility: 10 miles , 16 km
2014/09/03 01:53 KTHV 030153Z AUTO 00000KT 10SM CLR 23/19 A2991 RMK AO2 SLP126 T02330194
KFDK - Frederick, Maryland, USA
Distance from station: W 47mi, 75km
Updated: Tue, 02-Sep-2014 9:50pm EDT
Nearby thunderstorm, Clear
Nearby thunderstorm, Clear
 Wind from calm
Wind: Calm
Barometer: 29.94 inHg , 1013.9 hPa
Summary: Nearby Thunderstorm
Clouds: Clear
Visibility: 10 miles , 16 km
2014/09/03 01:50 KFDK 030150Z AUTO 00000KT 10SM VCTS CLR A2994 RMK AO2 LTG DSNT E
 
KESN - Easton/Newnam, Maryland, USA
Distance from station: SSE 48mi, 78km
Updated: Tue, 02-Sep-2014 9:30pm EDT
Heavy thunderstorm, Rain, Overcast
Heavy thunderstorm, Rain, Overcast
 Wind from NNE
Wind: NNE 18 mph , 30 km/h, Gust: 35 mph , 56 km/h
Temperature: 77°F , 25°C
Dew Point: 70°F , 21°C
Humidity: 79%
Barometer: 29.97 inHg , 1014.9 hPa
Summary: Heavy thunderstorm, Rain
Clouds: Overcast
Visibility: 2 miles , 3 km
Cloud details: Mostly cloudy 400 ft
Mostly cloudy 1100 ft
Overcast 1700 ft
2014/09/03 01:30 KESN 030130Z 02016G30KT 2SM +TSRA BKN004 BKN011 OVC017 25/21 A2997
KDCA - Washington/Natl, Washington D.c., USA
Distance from station: SW 49mi, 79km
Updated: Tue, 02-Sep-2014 9:52pm EDT
Mostly cloudy
Mostly cloudy
 Wind from ENE
Wind: ENE 5 mph , 7 km/h
Temperature: 81°F , 27°C
Heat Index: 86°F , 30°C
Dew Point: 73°F , 23°C
Humidity: 79%
Barometer: 29.91 inHg , 1012.9 hPa
Clouds: Mostly cloudy
Visibility: 10 miles , 16 km
Cloud details: Few Clouds 4100 ft
Partly cloudy 6500 ft
Partly cloudy 9000 ft
Mostly cloudy 25000 ft
2014/09/03 01:52 KDCA 030152Z 07004KT 10SM FEW041 SCT065 SCT090 BKN250 27/23 A2991 RMK AO2 RAE0056 SLP127 P0000 T02670233
 
KLNS - Lancaster, Pennsylvania, USA
Distance from station: N 49mi, 79km
Updated: Tue, 02-Sep-2014 9:53pm EDT
Mostly cloudy
Mostly cloudy
 Wind from WSW
Wind: WSW 8 mph , 13 km/h
Temperature: 73°F , 23°C
Dew Point: 66°F , 19°C
Humidity: 78%
Barometer: 29.90 inHg , 1012.5 hPa
Clouds: Mostly cloudy
Visibility: 10 miles , 16 km
Cloud details: Mostly cloudy 5500 ft
2014/09/03 01:53 KLNS 030153Z 25007KT 10SM BKN055 23/19 A2990 RMK AO2 SLP123 T02280194
KILG - Wilmington, Delaware, USA
Distance from station: ENE 50mi, 81km
Updated: Tue, 02-Sep-2014 9:51pm EDT
Mostly cloudy
Mostly cloudy
 Wind from WNW
Wind: WNW 5 mph , 7 km/h
Temperature: 73°F , 23°C
Dew Point: 70°F , 21°C
Humidity: 89%
Barometer: 29.90 inHg , 1012.5 hPa
Clouds: Mostly cloudy
Visibility: 10 miles , 16 km
Cloud details: Partly cloudy 8000 ft
Mostly cloudy 11000 ft
2014/09/03 01:51 KILG 030151Z 30004KT 10SM SCT080 BKN110 23/21 A2990 RMK AO2 PK WND 25031/0107 WSHFT 0101 LTG DSNT E-S RAB05E41 TSB06E27 SLP124 P0004 T02280206 $